sensor_id;sensor_type;location;lat;lon;timestamp;P1;durP1;ratioP1;P2;durP2;ratioP2
68353;SDS011;55274;43.060;25.618;2022-10-30T00:00:18;12.10;;;6.10;;
68353;SDS011;55274;43.060;25.618;2022-10-30T00:02:47;12.65;;;5.57;;
68353;SDS011;55274;43.060;25.618;2022-10-30T00:05:13;11.60;;;5.18;;
68353;SDS011;55274;43.060;25.618;2022-10-30T00:07:39;9.93;;;5.60;;
68353;SDS011;55274;43.060;25.618;2022-10-30T00:10:05;13.43;;;5.57;;
68353;SDS011;55274;43.060;25.618;2022-10-30T00:12:31;12.95;;;5.53;;
68353;SDS011;55274;43.060;25.618;2022-10-30T00:14:57;12.50;;;5.25;;
68353;SDS011;55274;43.060;25.618;2022-10-30T00:17:23;12.68;;;5.88;;
68353;SDS011;55274;43.060;25.618;2022-10-30T00:19:49;13.38;;;5.78;;
68353;SDS011;55274;43.060;25.618;2022-10-30T00:22:14;12.50;;;5.88;;
68353;SDS011;55274;43.060;25.618;2022-10-30T00:24:40;13.23;;;5.93;;
68353;SDS011;55274;43.060;25.618;2022-10-30T00:27:06;11.85;;;5.97;;
68353;SDS011;55274;43.060;25.618;2022-10-30T00:29:32;14.63;;;6.18;;
68353;SDS011;55274;43.060;25.618;2022-10-30T00:31:57;13.77;;;6.13;;
68353;SDS011;55274;43.060;25.618;2022-10-30T00:34:23;14.43;;;6.15;;
68353;SDS011;55274;43.060;25.618;2022-10-30T00:36:49;14.45;;;6.13;;
68353;SDS011;55274;43.060;25.618;2022-10-30T00:39:15;23.77;;;6.28;;
68353;SDS011;55274;43.060;25.618;2022-10-30T00:41:41;20.23;;;6.50;;
68353;SDS011;55274;43.060;25.618;2022-10-30T00:47:19;14.85;;;5.97;;
68353;SDS011;55274;43.060;25.618;2022-10-30T00:50:13;12.27;;;5.93;;
68353;SDS011;55274;43.060;25.618;2022-10-30T00:52:47;14.07;;;6.28;;
68353;SDS011;55274;43.060;25.618;2022-10-30T00:55:34;14.57;;;6.20;;
68353;SDS011;55274;43.060;25.618;2022-10-30T00:58:08;16.38;;;5.80;;
68353;SDS011;55274;43.060;25.618;2022-10-30T01:00:37;13.40;;;5.63;;
68353;SDS011;55274;43.060;25.618;2022-10-30T01:03:04;13.00;;;6.05;;
68353;SDS011;55274;43.060;25.618;2022-10-30T01:05:30;13.38;;;5.90;;
68353;SDS011;55274;43.060;25.618;2022-10-30T01:07:57;10.10;;;5.15;;
68353;SDS011;55274;43.060;25.618;2022-10-30T01:10:23;10.82;;;4.90;;
68353;SDS011;55274;43.060;25.618;2022-10-30T01:12:49;12.05;;;4.72;;
68353;SDS011;55274;43.060;25.618;2022-10-30T01:15:17;10.48;;;4.68;;
68353;SDS011;55274;43.060;25.618;2022-10-30T01:17:54;10.13;;;5.07;;
68353;SDS011;55274;43.060;25.618;2022-10-30T01:20:59;10.63;;;4.93;;
68353;SDS011;55274;43.060;25.618;2022-10-30T01:32:14;11.27;;;5.43;;
68353;SDS011;55274;43.060;25.618;2022-10-30T01:37:55;12.75;;;5.22;;
68353;SDS011;55274;43.060;25.618;2022-10-30T01:40:45;10.82;;;4.97;;
68353;SDS011;55274;43.060;25.618;2022-10-30T01:43:10;14.98;;;5.32;;
68353;SDS011;55274;43.060;25.618;2022-10-30T01:53:35;12.35;;;5.80;;
68353;SDS011;55274;43.060;25.618;2022-10-30T01:56:33;13.02;;;6.05;;
68353;SDS011;55274;43.060;25.618;2022-10-30T01:59:25;24.60;;;6.40;;
68353;SDS011;55274;43.060;25.618;2022-10-30T02:02:12;14.20;;;6.32;;
68353;SDS011;55274;43.060;25.618;2022-10-30T02:04:38;14.65;;;6.13;;
68353;SDS011;55274;43.060;25.618;2022-10-30T02:07:04;16.30;;;5.65;;
68353;SDS011;55274;43.060;25.618;2022-10-30T02:09:31;15.27;;;6.75;;
68353;SDS011;55274;43.060;25.618;2022-10-30T02:11:57;15.23;;;6.18;;
68353;SDS011;55274;43.060;25.618;2022-10-30T02:14:25;12.10;;;6.00;;
68353;SDS011;55274;43.060;25.618;2022-10-30T02:16:56;12.60;;;5.63;;
68353;SDS011;55274;43.060;25.618;2022-10-30T02:19:24;18.13;;;5.90;;
68353;SDS011;55274;43.060;25.618;2022-10-30T02:21:50;15.52;;;6.10;;
68353;SDS011;55274;43.060;25.618;2022-10-30T02:24:16;14.45;;;5.35;;
68353;SDS011;55274;43.060;25.618;2022-10-30T02:26:42;13.25;;;5.70;;
68353;SDS011;55274;43.060;25.618;2022-10-30T02:29:07;12.63;;;5.40;;
68353;SDS011;55274;43.060;25.618;2022-10-30T02:31:33;12.38;;;5.38;;
68353;SDS011;55274;43.060;25.618;2022-10-30T02:34:00;12.73;;;4.78;;
68353;SDS011;55274;43.060;25.618;2022-10-30T02:36:26;10.73;;;5.10;;
68353;SDS011;55274;43.060;25.618;2022-10-30T02:38:52;9.30;;;4.70;;
68353;SDS011;55274;43.060;25.618;2022-10-30T02:41:19;15.30;;;5.00;;
68353;SDS011;55274;43.060;25.618;2022-10-30T02:43:46;16.65;;;5.60;;
68353;SDS011;55274;43.060;25.618;2022-10-30T02:46:12;10.77;;;5.50;;
68353;SDS011;55274;43.060;25.618;2022-10-30T02:48:37;12.30;;;5.63;;
68353;SDS011;55274;43.060;25.618;2022-10-30T02:51:03;15.52;;;5.75;;
68353;SDS011;55274;43.060;25.618;2022-10-30T02:53:29;15.13;;;5.30;;
68353;SDS011;55274;43.060;25.618;2022-10-30T02:55:55;12.25;;;4.95;;
68353;SDS011;55274;43.060;25.618;2022-10-30T02:58:27;14.30;;;6.00;;
68353;SDS011;55274;43.060;25.618;2022-10-30T03:00:53;10.57;;;5.18;;
68353;SDS011;55274;43.060;25.618;2022-10-30T03:03:18;10.80;;;4.70;;
68353;SDS011;55274;43.060;25.618;2022-10-30T03:05:44;10.15;;;4.80;;
68353;SDS011;55274;43.060;25.618;2022-10-30T03:08:10;11.95;;;5.53;;
68353;SDS011;55274;43.060;25.618;2022-10-30T03:10:36;9.73;;;5.18;;
68353;SDS011;55274;43.060;25.618;2022-10-30T03:13:02;12.85;;;6.00;;
68353;SDS011;55274;43.060;25.618;2022-10-30T03:15:28;12.60;;;5.82;;
68353;SDS011;55274;43.060;25.618;2022-10-30T03:17:54;10.68;;;6.00;;
68353;SDS011;55274;43.060;25.618;2022-10-30T03:20:19;13.60;;;6.60;;
68353;SDS011;55274;43.060;25.618;2022-10-30T03:22:45;16.38;;;5.78;;
68353;SDS011;55274;43.060;25.618;2022-10-30T03:25:11;14.48;;;5.82;;
68353;SDS011;55274;43.060;25.618;2022-10-30T03:27:37;13.20;;;5.93;;
68353;SDS011;55274;43.060;25.618;2022-10-30T03:30:02;12.95;;;6.00;;
68353;SDS011;55274;43.060;25.618;2022-10-30T03:32:29;17.42;;;6.07;;
68353;SDS011;55274;43.060;25.618;2022-10-30T03:34:54;15.02;;;6.03;;
68353;SDS011;55274;43.060;25.618;2022-10-30T03:37:20;17.13;;;5.75;;
68353;SDS011;55274;43.060;25.618;2022-10-30T03:39:46;26.88;;;6.28;;
68353;SDS011;55274;43.060;25.618;2022-10-30T03:42:12;17.85;;;5.55;;
68353;SDS011;55274;43.060;25.618;2022-10-30T03:44:37;13.48;;;5.55;;
68353;SDS011;55274;43.060;25.618;2022-10-30T03:47:03;27.13;;;7.60;;
68353;SDS011;55274;43.060;25.618;2022-10-30T03:49:29;48.85;;;7.72;;
68353;SDS011;55274;43.060;25.618;2022-10-30T03:51:55;18.20;;;6.60;;
68353;SDS011;55274;43.060;25.618;2022-10-30T03:54:20;23.48;;;5.80;;
68353;SDS011;55274;43.060;25.618;2022-10-30T03:56:46;11.35;;;6.07;;
68353;SDS011;55274;43.060;25.618;2022-10-30T03:59:12;13.13;;;5.82;;
68353;SDS011;55274;43.060;25.618;2022-10-30T04:01:38;13.52;;;6.05;;
68353;SDS011;55274;43.060;25.618;2022-10-30T04:04:03;13.38;;;5.70;;
68353;SDS011;55274;43.060;25.618;2022-10-30T04:06:29;42.30;;;7.70;;
68353;SDS011;55274;43.060;25.618;2022-10-30T04:08:55;36.20;;;6.93;;
68353;SDS011;55274;43.060;25.618;2022-10-30T04:11:21;20.05;;;6.18;;
68353;SDS011;55274;43.060;25.618;2022-10-30T04:13:46;15.82;;;6.50;;
68353;SDS011;55274;43.060;25.618;2022-10-30T04:16:12;13.38;;;5.53;;
68353;SDS011;55274;43.060;25.618;2022-10-30T04:18:38;14.30;;;6.05;;
68353;SDS011;55274;43.060;25.618;2022-10-30T04:21:04;12.88;;;5.47;;
68353;SDS011;55274;43.060;25.618;2022-10-30T04:23:30;11.98;;;5.57;;
68353;SDS011;55274;43.060;25.618;2022-10-30T04:25:58;13.85;;;5.78;;
68353;SDS011;55274;43.060;25.618;2022-10-30T04:28:24;13.13;;;5.30;;
68353;SDS011;55274;43.060;25.618;2022-10-30T04:30:50;12.95;;;6.05;;
68353;SDS011;55274;43.060;25.618;2022-10-30T04:33:16;10.73;;;5.28;;
68353;SDS011;55274;43.060;25.618;2022-10-30T04:35:42;10.15;;;4.70;;
68353;SDS011;55274;43.060;25.618;2022-10-30T04:38:09;9.18;;;4.80;;
68353;SDS011;55274;43.060;25.618;2022-10-30T04:40:37;11.85;;;4.93;;
68353;SDS011;55274;43.060;25.618;2022-10-30T04:43:04;11.98;;;4.93;;
68353;SDS011;55274;43.060;25.618;2022-10-30T04:45:31;7.88;;;4.60;;
68353;SDS011;55274;43.060;25.618;2022-10-30T04:48:16;13.57;;;4.68;;
68353;SDS011;55274;43.060;25.618;2022-10-30T04:50:43;11.13;;;5.22;;
68353;SDS011;55274;43.060;25.618;2022-10-30T04:53:16;15.30;;;5.57;;
68353;SDS011;55274;43.060;25.618;2022-10-30T04:55:43;13.07;;;5.07;;
68353;SDS011;55274;43.060;25.618;2022-10-30T04:58:09;10.80;;;4.80;;
68353;SDS011;55274;43.060;25.618;2022-10-30T05:00:36;11.57;;;4.95;;
68353;SDS011;55274;43.060;25.618;2022-10-30T05:03:02;10.30;;;5.15;;
68353;SDS011;55274;43.060;25.618;2022-10-30T05:05:28;12.57;;;4.85;;
68353;SDS011;55274;43.060;25.618;2022-10-30T05:07:55;14.27;;;5.25;;
68353;SDS011;55274;43.060;25.618;2022-10-30T05:10:21;14.25;;;5.78;;
68353;SDS011;55274;43.060;25.618;2022-10-30T05:12:47;12.30;;;5.32;;
68353;SDS011;55274;43.060;25.618;2022-10-30T05:15:13;11.25;;;5.38;;
68353;SDS011;55274;43.060;25.618;2022-10-30T05:17:39;22.92;;;5.95;;
68353;SDS011;55274;43.060;25.618;2022-10-30T05:20:05;16.35;;;6.55;;
68353;SDS011;55274;43.060;25.618;2022-10-30T05:22:32;18.70;;;5.93;;
68353;SDS011;55274;43.060;25.618;2022-10-30T05:24:58;15.60;;;6.00;;
68353;SDS011;55274;43.060;25.618;2022-10-30T05:27:23;14.27;;;5.65;;
68353;SDS011;55274;43.060;25.618;2022-10-30T05:29:49;17.75;;;5.63;;
68353;SDS011;55274;43.060;25.618;2022-10-30T05:32:15;20.23;;;6.88;;
68353;SDS011;55274;43.060;25.618;2022-10-30T05:34:41;17.80;;;7.07;;
68353;SDS011;55274;43.060;25.618;2022-10-30T05:37:06;20.83;;;6.40;;
68353;SDS011;55274;43.060;25.618;2022-10-30T05:39:32;24.30;;;6.13;;
68353;SDS011;55274;43.060;25.618;2022-10-30T05:41:58;14.38;;;6.38;;
68353;SDS011;55274;43.060;25.618;2022-10-30T05:44:24;23.65;;;6.88;;
68353;SDS011;55274;43.060;25.618;2022-10-30T05:46:49;26.20;;;7.10;;
68353;SDS011;55274;43.060;25.618;2022-10-30T05:49:15;38.63;;;7.68;;
68353;SDS011;55274;43.060;25.618;2022-10-30T05:51:42;42.60;;;8.57;;
68353;SDS011;55274;43.060;25.618;2022-10-30T05:54:08;60.65;;;12.80;;
68353;SDS011;55274;43.060;25.618;2022-10-30T05:56:33;68.80;;;13.73;;
68353;SDS011;55274;43.060;25.618;2022-10-30T05:58:59;68.70;;;13.75;;
68353;SDS011;55274;43.060;25.618;2022-10-30T06:01:25;63.92;;;13.65;;
68353;SDS011;55274;43.060;25.618;2022-10-30T06:03:50;64.82;;;12.18;;
68353;SDS011;55274;43.060;25.618;2022-10-30T06:06:16;58.40;;;11.48;;
68353;SDS011;55274;43.060;25.618;2022-10-30T06:08:42;59.75;;;14.13;;
68353;SDS011;55274;43.060;25.618;2022-10-30T06:11:08;51.33;;;14.73;;
68353;SDS011;55274;43.060;25.618;2022-10-30T06:13:34;68.20;;;17.75;;
68353;SDS011;55274;43.060;25.618;2022-10-30T06:15:59;64.43;;;18.48;;
68353;SDS011;55274;43.060;25.618;2022-10-30T06:18:25;124.18;;;18.38;;
68353;SDS011;55274;43.060;25.618;2022-10-30T06:20:53;89.47;;;19.10;;
68353;SDS011;55274;43.060;25.618;2022-10-30T06:23:19;82.13;;;20.40;;
68353;SDS011;55274;43.060;25.618;2022-10-30T06:25:45;74.45;;;21.70;;
68353;SDS011;55274;43.060;25.618;2022-10-30T06:28:11;80.07;;;21.52;;
68353;SDS011;55274;43.060;25.618;2022-10-30T06:30:38;89.75;;;21.05;;
68353;SDS011;55274;43.060;25.618;2022-10-30T06:33:05;93.88;;;21.45;;
68353;SDS011;55274;43.060;25.618;2022-10-30T06:35:31;71.03;;;20.50;;
68353;SDS011;55274;43.060;25.618;2022-10-30T06:37:57;57.95;;;19.45;;
68353;SDS011;55274;43.060;25.618;2022-10-30T06:40:26;106.60;;;21.25;;
68353;SDS011;55274;43.060;25.618;2022-10-30T06:42:54;71.28;;;19.35;;
68353;SDS011;55274;43.060;25.618;2022-10-30T06:45:21;69.85;;;20.55;;
68353;SDS011;55274;43.060;25.618;2022-10-30T06:47:47;62.67;;;18.15;;
68353;SDS011;55274;43.060;25.618;2022-10-30T06:50:15;61.25;;;20.80;;
68353;SDS011;55274;43.060;25.618;2022-10-30T06:52:42;65.43;;;22.42;;
68353;SDS011;55274;43.060;25.618;2022-10-30T06:55:08;59.95;;;23.27;;
68353;SDS011;55274;43.060;25.618;2022-10-30T06:57:35;57.08;;;21.08;;
68353;SDS011;55274;43.060;25.618;2022-10-30T07:00:01;71.28;;;22.67;;
68353;SDS011;55274;43.060;25.618;2022-10-30T07:02:28;50.50;;;20.70;;
68353;SDS011;55274;43.060;25.618;2022-10-30T07:04:54;51.20;;;22.00;;
68353;SDS011;55274;43.060;25.618;2022-10-30T07:07:19;58.97;;;26.10;;
68353;SDS011;55274;43.060;25.618;2022-10-30T07:09:45;66.85;;;28.35;;
68353;SDS011;55274;43.060;25.618;2022-10-30T07:12:11;54.72;;;23.45;;
68353;SDS011;55274;43.060;25.618;2022-10-30T07:14:37;64.03;;;27.23;;
68353;SDS011;55274;43.060;25.618;2022-10-30T07:17:03;58.40;;;24.75;;
68353;SDS011;55274;43.060;25.618;2022-10-30T07:19:29;57.10;;;26.40;;
68353;SDS011;55274;43.060;25.618;2022-10-30T07:21:54;42.42;;;18.58;;
68353;SDS011;55274;43.060;25.618;2022-10-30T07:24:20;45.50;;;20.75;;
68353;SDS011;55274;43.060;25.618;2022-10-30T07:26:46;44.15;;;19.55;;
68353;SDS011;55274;43.060;25.618;2022-10-30T07:29:12;42.50;;;19.42;;
68353;SDS011;55274;43.060;25.618;2022-10-30T07:31:38;47.53;;;21.17;;
68353;SDS011;55274;43.060;25.618;2022-10-30T07:34:03;54.20;;;24.25;;
68353;SDS011;55274;43.060;25.618;2022-10-30T07:36:29;66.40;;;28.15;;
68353;SDS011;55274;43.060;25.618;2022-10-30T07:38:55;62.47;;;27.55;;
68353;SDS011;55274;43.060;25.618;2022-10-30T07:41:21;40.92;;;17.20;;
68353;SDS011;55274;43.060;25.618;2022-10-30T07:43:46;42.95;;;19.00;;
68353;SDS011;55274;43.060;25.618;2022-10-30T07:46:13;37.53;;;16.48;;
68353;SDS011;55274;43.060;25.618;2022-10-30T07:48:39;40.88;;;18.60;;
68353;SDS011;55274;43.060;25.618;2022-10-30T07:51:05;28.38;;;13.65;;
68353;SDS011;55274;43.060;25.618;2022-10-30T07:53:31;33.15;;;14.27;;
68353;SDS011;55274;43.060;25.618;2022-10-30T07:55:57;55.80;;;13.75;;
68353;SDS011;55274;43.060;25.618;2022-10-30T07:58:23;32.78;;;12.35;;
68353;SDS011;55274;43.060;25.618;2022-10-30T08:00:49;22.38;;;10.77;;
68353;SDS011;55274;43.060;25.618;2022-10-30T08:03:14;23.80;;;9.30;;
68353;SDS011;55274;43.060;25.618;2022-10-30T08:05:40;33.00;;;12.95;;
68353;SDS011;55274;43.060;25.618;2022-10-30T08:08:06;30.40;;;14.02;;
68353;SDS011;55274;43.060;25.618;2022-10-30T08:10:33;40.22;;;20.05;;
68353;SDS011;55274;43.060;25.618;2022-10-30T08:12:59;50.60;;;23.42;;
68353;SDS011;55274;43.060;25.618;2022-10-30T08:15:25;45.88;;;22.48;;
68353;SDS011;55274;43.060;25.618;2022-10-30T08:17:51;46.78;;;21.33;;
68353;SDS011;55274;43.060;25.618;2022-10-30T08:20:18;33.50;;;15.70;;
68353;SDS011;55274;43.060;25.618;2022-10-30T08:25:16;60.38;;;22.08;;
68353;SDS011;55274;43.060;25.618;2022-10-30T08:27:50;40.17;;;18.73;;
68353;SDS011;55274;43.060;25.618;2022-10-30T08:30:20;31.75;;;15.80;;
68353;SDS011;55274;43.060;25.618;2022-10-30T08:32:47;26.42;;;12.73;;
68353;SDS011;55274;43.060;25.618;2022-10-30T08:35:13;21.73;;;11.00;;
68353;SDS011;55274;43.060;25.618;2022-10-30T08:37:40;24.15;;;10.48;;
68353;SDS011;55274;43.060;25.618;2022-10-30T08:40:07;17.75;;;8.27;;
68353;SDS011;55274;43.060;25.618;2022-10-30T08:42:34;19.42;;;7.43;;
68353;SDS011;55274;43.060;25.618;2022-10-30T08:45:00;16.50;;;5.93;;
68353;SDS011;55274;43.060;25.618;2022-10-30T08:47:25;25.17;;;5.43;;
68353;SDS011;55274;43.060;25.618;2022-10-30T08:49:51;136.00;;;12.45;;
68353;SDS011;55274;43.060;25.618;2022-10-30T08:52:17;15.68;;;3.80;;
68353;SDS011;55274;43.060;25.618;2022-10-30T08:54:43;8.13;;;3.30;;
68353;SDS011;55274;43.060;25.618;2022-10-30T08:57:08;9.75;;;4.07;;
68353;SDS011;55274;43.060;25.618;2022-10-30T08:59:34;10.70;;;3.70;;
68353;SDS011;55274;43.060;25.618;2022-10-30T09:02:00;15.50;;;3.95;;
68353;SDS011;55274;43.060;25.618;2022-10-30T09:04:26;36.10;;;4.60;;
68353;SDS011;55274;43.060;25.618;2022-10-30T09:06:52;7.20;;;2.60;;
68353;SDS011;55274;43.060;25.618;2022-10-30T09:09:17;9.77;;;2.72;;
68353;SDS011;55274;43.060;25.618;2022-10-30T09:11:43;30.13;;;4.20;;
68353;SDS011;55274;43.060;25.618;2022-10-30T09:14:11;23.90;;;3.45;;
68353;SDS011;55274;43.060;25.618;2022-10-30T09:16:37;6.38;;;2.03;;
68353;SDS011;55274;43.060;25.618;2022-10-30T09:19:02;4.20;;;1.95;;
68353;SDS011;55274;43.060;25.618;2022-10-30T09:21:28;4.90;;;1.80;;
68353;SDS011;55274;43.060;25.618;2022-10-30T09:23:54;5.07;;;2.00;;
68353;SDS011;55274;43.060;25.618;2022-10-30T09:26:20;3.58;;;2.08;;
68353;SDS011;55274;43.060;25.618;2022-10-30T09:28:46;7.72;;;1.90;;
68353;SDS011;55274;43.060;25.618;2022-10-30T09:31:12;43.38;;;4.38;;
68353;SDS011;55274;43.060;25.618;2022-10-30T09:33:37;28.85;;;3.10;;
68353;SDS011;55274;43.060;25.618;2022-10-30T09:36:03;22.40;;;2.90;;
68353;SDS011;55274;43.060;25.618;2022-10-30T09:38:29;19.92;;;2.97;;
68353;SDS011;55274;43.060;25.618;2022-10-30T09:55:22;13.35;;;2.20;;
68353;SDS011;55274;43.060;25.618;2022-10-30T10:00:49;3.65;;;1.85;;
68353;SDS011;55274;43.060;25.618;2022-10-30T10:06:32;10.02;;;2.05;;
68353;SDS011;55274;43.060;25.618;2022-10-30T10:11:34;138.77;;;9.75;;
68353;SDS011;55274;43.060;25.618;2022-10-30T10:14:03;106.85;;;8.38;;
68353;SDS011;55274;43.060;25.618;2022-10-30T10:16:41;50.15;;;4.85;;
68353;SDS011;55274;43.060;25.618;2022-10-30T10:19:15;14.38;;;3.15;;
68353;SDS011;55274;43.060;25.618;2022-10-30T10:21:56;41.22;;;4.03;;
68353;SDS011;55274;43.060;25.618;2022-10-30T10:27:40;19.88;;;3.00;;
68353;SDS011;55274;43.060;25.618;2022-10-30T10:43:24;54.45;;;4.70;;
68353;SDS011;55274;43.060;25.618;2022-10-30T10:51:58;2.95;;;1.23;;
68353;SDS011;55274;43.060;25.618;2022-10-30T10:54:34;3.35;;;1.60;;
68353;SDS011;55274;43.060;25.618;2022-10-30T10:57:07;9.27;;;1.52;;
68353;SDS011;55274;43.060;25.618;2022-10-30T10:59:55;54.17;;;5.38;;
68353;SDS011;55274;43.060;25.618;2022-10-30T11:04:54;6.63;;;2.05;;
68353;SDS011;55274;43.060;25.618;2022-10-30T11:07:46;3.10;;;1.52;;
68353;SDS011;55274;43.060;25.618;2022-10-30T11:10:14;18.23;;;2.38;;
68353;SDS011;55274;43.060;25.618;2022-10-30T11:12:42;16.55;;;2.40;;
68353;SDS011;55274;43.060;25.618;2022-10-30T11:18:15;3.38;;;1.60;;
68353;SDS011;55274;43.060;25.618;2022-10-30T11:28:47;15.07;;;2.03;;
68353;SDS011;55274;43.060;25.618;2022-10-30T11:31:29;8.82;;;1.92;;
68353;SDS011;55274;43.060;25.618;2022-10-30T11:34:19;3.50;;;1.30;;
68353;SDS011;55274;43.060;25.618;2022-10-30T11:36:55;6.60;;;1.65;;
68353;SDS011;55274;43.060;25.618;2022-10-30T11:39:22;10.77;;;1.73;;
68353;SDS011;55274;43.060;25.618;2022-10-30T11:42:03;12.07;;;2.35;;
68353;SDS011;55274;43.060;25.618;2022-10-30T11:44:36;3.55;;;1.60;;
68353;SDS011;55274;43.060;25.618;2022-10-30T11:47:05;3.75;;;1.45;;
68353;SDS011;55274;43.060;25.618;2022-10-30T11:49:44;3.40;;;1.60;;
68353;SDS011;55274;43.060;25.618;2022-10-30T11:52:14;3.80;;;1.23;;
68353;SDS011;55274;43.060;25.618;2022-10-30T11:54:44;3.60;;;1.33;;
68353;SDS011;55274;43.060;25.618;2022-10-30T12:00:16;2.97;;;1.60;;
68353;SDS011;55274;43.060;25.618;2022-10-30T12:02:46;4.70;;;1.88;;
68353;SDS011;55274;43.060;25.618;2022-10-30T12:07:52;2.60;;;1.35;;
68353;SDS011;55274;43.060;25.618;2022-10-30T12:10:26;3.65;;;1.42;;
68353;SDS011;55274;43.060;25.618;2022-10-30T12:12:54;2.67;;;1.42;;
68353;SDS011;55274;43.060;25.618;2022-10-30T12:15:22;22.83;;;2.90;;
68353;SDS011;55274;43.060;25.618;2022-10-30T12:17:54;17.67;;;2.13;;
68353;SDS011;55274;43.060;25.618;2022-10-30T12:20:24;6.97;;;1.42;;
68353;SDS011;55274;43.060;25.618;2022-10-30T12:22:51;3.53;;;1.20;;
68353;SDS011;55274;43.060;25.618;2022-10-30T12:25:28;2.70;;;1.38;;
68353;SDS011;55274;43.060;25.618;2022-10-30T12:30:31;2.28;;;1.40;;
68353;SDS011;55274;43.060;25.618;2022-10-30T12:33:22;76.00;;;5.53;;
68353;SDS011;55274;43.060;25.618;2022-10-30T12:35:59;70.63;;;6.43;;
68353;SDS011;55274;43.060;25.618;2022-10-30T12:41:29;49.42;;;4.78;;
68353;SDS011;55274;43.060;25.618;2022-10-30T12:44:07;29.90;;;3.20;;
68353;SDS011;55274;43.060;25.618;2022-10-30T12:46:42;73.03;;;5.53;;
68353;SDS011;55274;43.060;25.618;2022-10-30T12:49:53;63.08;;;4.90;;
68353;SDS011;55274;43.060;25.618;2022-10-30T12:57:11;21.85;;;2.78;;
68353;SDS011;55274;43.060;25.618;2022-10-30T13:02:35;85.53;;;5.50;;
68353;SDS011;55274;43.060;25.618;2022-10-30T13:05:23;68.53;;;5.45;;
68353;SDS011;55274;43.060;25.618;2022-10-30T13:10:53;66.18;;;5.22;;
68353;SDS011;55274;43.060;25.618;2022-10-30T13:13:38;37.42;;;4.05;;
68353;SDS011;55274;43.060;25.618;2022-10-30T13:16:10;33.97;;;3.28;;
68353;SDS011;55274;43.060;25.618;2022-10-30T13:18:39;11.40;;;2.10;;
68353;SDS011;55274;43.060;25.618;2022-10-30T13:26:16;14.02;;;1.60;;
68353;SDS011;55274;43.060;25.618;2022-10-30T13:34:25;16.25;;;2.03;;
68353;SDS011;55274;43.060;25.618;2022-10-30T13:37:10;29.23;;;2.13;;
68353;SDS011;55274;43.060;25.618;2022-10-30T13:39:49;21.98;;;2.10;;
68353;SDS011;55274;43.060;25.618;2022-10-30T13:51:19;37.30;;;3.28;;
68353;SDS011;55274;43.060;25.618;2022-10-30T13:54:16;21.10;;;2.35;;
68353;SDS011;55274;43.060;25.618;2022-10-30T13:56:47;57.78;;;4.57;;
68353;SDS011;55274;43.060;25.618;2022-10-30T14:04:55;4.68;;;1.40;;
68353;SDS011;55274;43.060;25.618;2022-10-30T14:07:40;3.97;;;1.50;;
68353;SDS011;55274;43.060;25.618;2022-10-30T14:10:30;7.00;;;2.05;;
68353;SDS011;55274;43.060;25.618;2022-10-30T14:13:14;6.82;;;1.38;;
68353;SDS011;55274;43.060;25.618;2022-10-30T14:15:41;9.35;;;1.92;;
68353;SDS011;55274;43.060;25.618;2022-10-30T14:23:07;12.05;;;1.90;;
68353;SDS011;55274;43.060;25.618;2022-10-30T14:25:38;4.47;;;1.42;;
68353;SDS011;55274;43.060;25.618;2022-10-30T14:28:04;5.38;;;1.40;;
68353;SDS011;55274;43.060;25.618;2022-10-30T14:30:42;8.98;;;1.42;;
68353;SDS011;55274;43.060;25.618;2022-10-30T14:33:32;4.28;;;1.02;;
68353;SDS011;55274;43.060;25.618;2022-10-30T14:38:41;27.15;;;3.05;;
68353;SDS011;55274;43.060;25.618;2022-10-30T14:49:35;33.40;;;2.95;;
68353;SDS011;55274;43.060;25.618;2022-10-30T15:00:28;8.13;;;1.70;;
68353;SDS011;55274;43.060;25.618;2022-10-30T15:03:24;16.45;;;1.95;;
68353;SDS011;55274;43.060;25.618;2022-10-30T15:06:13;17.35;;;2.08;;
68353;SDS011;55274;43.060;25.618;2022-10-30T15:14:29;62.20;;;5.75;;
68353;SDS011;55274;43.060;25.618;2022-10-30T15:17:02;97.93;;;8.23;;
68353;SDS011;55274;43.060;25.618;2022-10-30T15:19:28;73.50;;;6.13;;
68353;SDS011;55274;43.060;25.618;2022-10-30T15:21:56;56.72;;;6.30;;
68353;SDS011;55274;43.060;25.618;2022-10-30T15:24:23;50.28;;;5.75;;
68353;SDS011;55274;43.060;25.618;2022-10-30T15:26:54;59.72;;;4.65;;
68353;SDS011;55274;43.060;25.618;2022-10-30T15:29:26;69.72;;;5.78;;
68353;SDS011;55274;43.060;25.618;2022-10-30T15:32:29;136.93;;;10.82;;
68353;SDS011;55274;43.060;25.618;2022-10-30T15:34:59;139.00;;;10.10;;
68353;SDS011;55274;43.060;25.618;2022-10-30T15:37:27;115.45;;;9.80;;
68353;SDS011;55274;43.060;25.618;2022-10-30T15:42:42;135.85;;;9.38;;
68353;SDS011;55274;43.060;25.618;2022-10-30T15:45:19;121.75;;;10.20;;
68353;SDS011;55274;43.060;25.618;2022-10-30T15:47:51;158.00;;;12.57;;
68353;SDS011;55274;43.060;25.618;2022-10-30T15:50:24;202.10;;;14.65;;
68353;SDS011;55274;43.060;25.618;2022-10-30T15:52:50;210.05;;;15.52;;
68353;SDS011;55274;43.060;25.618;2022-10-30T15:55:18;250.43;;;19.02;;
68353;SDS011;55274;43.060;25.618;2022-10-30T15:57:52;242.25;;;18.92;;
68353;SDS011;55274;43.060;25.618;2022-10-30T16:00:26;211.07;;;16.05;;
68353;SDS011;55274;43.060;25.618;2022-10-30T16:05:31;229.80;;;18.33;;
68353;SDS011;55274;43.060;25.618;2022-10-30T16:07:58;277.00;;;18.42;;
68353;SDS011;55274;43.060;25.618;2022-10-30T16:10:27;217.63;;;15.43;;
68353;SDS011;55274;43.060;25.618;2022-10-30T16:12:59;110.93;;;8.55;;
68353;SDS011;55274;43.060;25.618;2022-10-30T16:15:32;115.13;;;8.10;;
68353;SDS011;55274;43.060;25.618;2022-10-30T16:20:56;69.53;;;6.88;;
68353;SDS011;55274;43.060;25.618;2022-10-30T16:23:27;61.17;;;6.78;;
68353;SDS011;55274;43.060;25.618;2022-10-30T16:25:55;81.00;;;7.65;;
68353;SDS011;55274;43.060;25.618;2022-10-30T16:28:29;62.92;;;6.90;;
68353;SDS011;55274;43.060;25.618;2022-10-30T16:33:28;50.33;;;5.10;;
68353;SDS011;55274;43.060;25.618;2022-10-30T16:35:56;34.63;;;4.13;;
68353;SDS011;55274;43.060;25.618;2022-10-30T16:38:23;54.90;;;5.20;;
68353;SDS011;55274;43.060;25.618;2022-10-30T16:40:52;47.17;;;4.97;;
68353;SDS011;55274;43.060;25.618;2022-10-30T16:43:28;39.22;;;4.88;;
68353;SDS011;55274;43.060;25.618;2022-10-30T16:45:56;36.53;;;5.95;;
68353;SDS011;55274;43.060;25.618;2022-10-30T16:48:56;34.22;;;5.20;;
68353;SDS011;55274;43.060;25.618;2022-10-30T16:51:24;26.67;;;4.25;;
68353;SDS011;55274;43.060;25.618;2022-10-30T16:53:50;29.50;;;4.78;;
68353;SDS011;55274;43.060;25.618;2022-10-30T16:56:24;12.95;;;3.60;;
68353;SDS011;55274;43.060;25.618;2022-10-30T16:58:52;17.77;;;4.57;;
68353;SDS011;55274;43.060;25.618;2022-10-30T17:01:25;16.65;;;4.35;;
68353;SDS011;55274;43.060;25.618;2022-10-30T17:03:52;21.05;;;4.78;;
68353;SDS011;55274;43.060;25.618;2022-10-30T17:06:40;18.15;;;4.57;;
68353;SDS011;55274;43.060;25.618;2022-10-30T17:14:42;40.78;;;5.45;;
68353;SDS011;55274;43.060;25.618;2022-10-30T17:19:59;33.08;;;5.72;;
68353;SDS011;55274;43.060;25.618;2022-10-30T17:22:26;58.50;;;6.10;;
68353;SDS011;55274;43.060;25.618;2022-10-30T17:24:52;52.25;;;6.05;;
68353;SDS011;55274;43.060;25.618;2022-10-30T17:29:53;70.47;;;9.07;;
68353;SDS011;55274;43.060;25.618;2022-10-30T17:32:21;171.98;;;13.73;;
68353;SDS011;55274;43.060;25.618;2022-10-30T17:34:53;115.13;;;9.65;;